sensor_id;sensor_type;location;lat;lon;timestamp;P1;durP1;ratioP1;P2;durP2;ratioP2
65641;SDS011;52340;-6.720;108.544;2023-05-07T00:10:57;40.10;;;29.38;;
65641;SDS011;52340;-6.720;108.544;2023-05-07T00:20:10;38.57;;;27.57;;
65641;SDS011;52340;-6.720;108.544;2023-05-07T00:32:45;34.95;;;25.88;;
65641;SDS011;52340;-6.720;108.544;2023-05-07T00:36:10;37.72;;;26.58;;
65641;SDS011;52340;-6.720;108.544;2023-05-07T00:38:16;35.95;;;25.90;;
65641;SDS011;52340;-6.720;108.544;2023-05-07T00:45:00;36.00;;;25.65;;
65641;SDS011;52340;-6.720;108.544;2023-05-07T00:46:02;38.72;;;29.50;;
65641;SDS011;52340;-6.720;108.544;2023-05-07T00:48:15;36.15;;;26.50;;
65641;SDS011;52340;-6.720;108.544;2023-05-07T01:06:44;39.97;;;29.13;;
65641;SDS011;52340;-6.720;108.544;2023-05-07T01:07:46;38.03;;;28.92;;
65641;SDS011;52340;-6.720;108.544;2023-05-07T01:12:19;42.72;;;31.63;;
65641;SDS011;52340;-6.720;108.544;2023-05-07T01:17:51;46.53;;;33.77;;
65641;SDS011;52340;-6.720;108.544;2023-05-07T01:18:53;46.08;;;34.05;;
65641;SDS011;52340;-6.720;108.544;2023-05-07T01:22:10;40.92;;;31.67;;
65641;SDS011;52340;-6.720;108.544;2023-05-07T01:24:25;46.20;;;34.35;;
65641;SDS011;52340;-6.720;108.544;2023-05-07T01:35:47;41.03;;;29.35;;
65641;SDS011;52340;-6.720;108.544;2023-05-07T01:36:51;37.80;;;27.60;;
65641;SDS011;52340;-6.720;108.544;2023-05-07T01:37:54;40.50;;;30.00;;
65641;SDS011;52340;-6.720;108.544;2023-05-07T01:38:56;40.72;;;29.92;;
65641;SDS011;52340;-6.720;108.544;2023-05-07T01:40:00;40.42;;;30.17;;
65641;SDS011;52340;-6.720;108.544;2023-05-07T01:42:19;38.55;;;27.65;;
65641;SDS011;52340;-6.720;108.544;2023-05-07T01:44:27;39.15;;;27.33;;
65641;SDS011;52340;-6.720;108.544;2023-05-07T01:45:29;34.53;;;27.73;;
65641;SDS011;52340;-6.720;108.544;2023-05-07T01:46:31;32.33;;;24.95;;
65641;SDS011;52340;-6.720;108.544;2023-05-07T01:47:33;32.85;;;26.35;;
65641;SDS011;52340;-6.720;108.544;2023-05-07T01:51:49;36.47;;;27.98;;
65641;SDS011;52340;-6.720;108.544;2023-05-07T01:59:48;33.67;;;25.65;;
65641;SDS011;52340;-6.720;108.544;2023-05-07T02:00:50;34.00;;;25.25;;
65641;SDS011;52340;-6.720;108.544;2023-05-07T02:15:48;33.25;;;24.48;;
65641;SDS011;52340;-6.720;108.544;2023-05-07T02:16:50;32.50;;;25.48;;
65641;SDS011;52340;-6.720;108.544;2023-05-07T02:18:01;33.08;;;25.50;;
65641;SDS011;52340;-6.720;108.544;2023-05-07T02:19:04;33.17;;;25.33;;
65641;SDS011;52340;-6.720;108.544;2023-05-07T02:20:06;31.33;;;24.88;;
65641;SDS011;52340;-6.720;108.544;2023-05-07T02:21:09;32.38;;;24.05;;
65641;SDS011;52340;-6.720;108.544;2023-05-07T02:23:19;29.73;;;22.15;;
65641;SDS011;52340;-6.720;108.544;2023-05-07T02:24:21;28.92;;;23.10;;
65641;SDS011;52340;-6.720;108.544;2023-05-07T02:25:22;33.40;;;24.10;;
65641;SDS011;52340;-6.720;108.544;2023-05-07T02:26:25;30.52;;;22.63;;
65641;SDS011;52340;-6.720;108.544;2023-05-07T02:27:26;30.92;;;22.52;;
65641;SDS011;52340;-6.720;108.544;2023-05-07T02:28:28;29.13;;;23.13;;
65641;SDS011;52340;-6.720;108.544;2023-05-07T02:29:30;30.90;;;23.45;;
65641;SDS011;52340;-6.720;108.544;2023-05-07T02:30:32;30.90;;;23.85;;
65641;SDS011;52340;-6.720;108.544;2023-05-07T02:31:35;34.30;;;23.55;;
65641;SDS011;52340;-6.720;108.544;2023-05-07T02:32:37;32.75;;;24.33;;
65641;SDS011;52340;-6.720;108.544;2023-05-07T02:33:39;29.05;;;23.13;;
65641;SDS011;52340;-6.720;108.544;2023-05-07T02:34:41;33.28;;;23.92;;
65641;SDS011;52340;-6.720;108.544;2023-05-07T02:35:43;30.75;;;22.88;;
65641;SDS011;52340;-6.720;108.544;2023-05-07T02:36:44;28.98;;;22.65;;
65641;SDS011;52340;-6.720;108.544;2023-05-07T02:37:46;29.55;;;22.75;;
65641;SDS011;52340;-6.720;108.544;2023-05-07T02:38:48;27.67;;;22.13;;
65641;SDS011;52340;-6.720;108.544;2023-05-07T02:39:49;29.83;;;22.13;;
65641;SDS011;52340;-6.720;108.544;2023-05-07T02:40:51;26.88;;;21.17;;
65641;SDS011;52340;-6.720;108.544;2023-05-07T02:41:53;31.02;;;21.98;;
65641;SDS011;52340;-6.720;108.544;2023-05-07T02:42:55;31.27;;;24.80;;
65641;SDS011;52340;-6.720;108.544;2023-05-07T02:43:57;29.15;;;23.63;;
65641;SDS011;52340;-6.720;108.544;2023-05-07T02:44:59;32.10;;;24.13;;
65641;SDS011;52340;-6.720;108.544;2023-05-07T02:46:01;43.22;;;24.98;;
65641;SDS011;52340;-6.720;108.544;2023-05-07T02:47:06;36.38;;;27.27;;
65641;SDS011;52340;-6.720;108.544;2023-05-07T02:48:08;31.33;;;22.58;;
65641;SDS011;52340;-6.720;108.544;2023-05-07T02:49:09;33.70;;;24.33;;
65641;SDS011;52340;-6.720;108.544;2023-05-07T02:50:12;35.25;;;25.90;;
65641;SDS011;52340;-6.720;108.544;2023-05-07T02:51:14;24.75;;;19.42;;
65641;SDS011;52340;-6.720;108.544;2023-05-07T02:52:17;24.58;;;17.80;;
65641;SDS011;52340;-6.720;108.544;2023-05-07T02:53:19;25.30;;;17.95;;
65641;SDS011;52340;-6.720;108.544;2023-05-07T02:54:21;26.73;;;19.77;;
65641;SDS011;52340;-6.720;108.544;2023-05-07T02:55:23;24.60;;;18.60;;
65641;SDS011;52340;-6.720;108.544;2023-05-07T02:56:25;26.25;;;20.27;;
65641;SDS011;52340;-6.720;108.544;2023-05-07T02:57:30;23.45;;;18.38;;
65641;SDS011;52340;-6.720;108.544;2023-05-07T02:58:34;23.45;;;18.35;;
65641;SDS011;52340;-6.720;108.544;2023-05-07T02:59:39;25.08;;;17.33;;
65641;SDS011;52340;-6.720;108.544;2023-05-07T03:00:41;23.10;;;16.67;;
65641;SDS011;52340;-6.720;108.544;2023-05-07T03:01:43;31.17;;;21.83;;
65641;SDS011;52340;-6.720;108.544;2023-05-07T03:02:46;27.30;;;19.55;;
65641;SDS011;52340;-6.720;108.544;2023-05-07T03:03:48;23.23;;;19.15;;
65641;SDS011;52340;-6.720;108.544;2023-05-07T03:04:50;24.75;;;19.05;;
65641;SDS011;52340;-6.720;108.544;2023-05-07T03:05:52;28.67;;;20.05;;
65641;SDS011;52340;-6.720;108.544;2023-05-07T03:06:53;39.20;;;27.25;;
65641;SDS011;52340;-6.720;108.544;2023-05-07T03:07:55;37.80;;;25.38;;
65641;SDS011;52340;-6.720;108.544;2023-05-07T03:08:57;32.50;;;22.98;;
65641;SDS011;52340;-6.720;108.544;2023-05-07T03:09:59;37.88;;;24.92;;
65641;SDS011;52340;-6.720;108.544;2023-05-07T03:11:00;28.70;;;20.40;;
65641;SDS011;52340;-6.720;108.544;2023-05-07T03:12:02;27.52;;;20.90;;
65641;SDS011;52340;-6.720;108.544;2023-05-07T03:13:04;28.88;;;20.38;;
65641;SDS011;52340;-6.720;108.544;2023-05-07T03:14:06;24.60;;;19.00;;
65641;SDS011;52340;-6.720;108.544;2023-05-07T03:15:11;22.50;;;17.30;;
65641;SDS011;52340;-6.720;108.544;2023-05-07T03:16:13;22.45;;;16.60;;
65641;SDS011;52340;-6.720;108.544;2023-05-07T03:17:15;22.15;;;17.30;;
65641;SDS011;52340;-6.720;108.544;2023-05-07T03:18:18;21.17;;;16.70;;
65641;SDS011;52340;-6.720;108.544;2023-05-07T03:19:23;22.10;;;16.70;;
65641;SDS011;52340;-6.720;108.544;2023-05-07T03:20:34;23.48;;;16.77;;
65641;SDS011;52340;-6.720;108.544;2023-05-07T03:21:36;22.67;;;16.55;;
65641;SDS011;52340;-6.720;108.544;2023-05-07T03:22:37;22.25;;;15.77;;
65641;SDS011;52340;-6.720;108.544;2023-05-07T03:23:39;20.83;;;16.38;;
65641;SDS011;52340;-6.720;108.544;2023-05-07T03:24:41;22.90;;;15.85;;
65641;SDS011;52340;-6.720;108.544;2023-05-07T03:25:43;21.98;;;15.77;;
65641;SDS011;52340;-6.720;108.544;2023-05-07T03:26:44;20.15;;;15.27;;
65641;SDS011;52340;-6.720;108.544;2023-05-07T03:27:46;20.23;;;15.32;;
65641;SDS011;52340;-6.720;108.544;2023-05-07T03:28:48;22.50;;;15.55;;
65641;SDS011;52340;-6.720;108.544;2023-05-07T03:29:50;24.35;;;15.57;;
65641;SDS011;52340;-6.720;108.544;2023-05-07T03:30:51;20.85;;;15.70;;
65641;SDS011;52340;-6.720;108.544;2023-05-07T03:31:53;20.48;;;15.55;;
65641;SDS011;52340;-6.720;108.544;2023-05-07T03:32:55;20.48;;;15.15;;
65641;SDS011;52340;-6.720;108.544;2023-05-07T03:33:58;19.42;;;14.38;;
65641;SDS011;52340;-6.720;108.544;2023-05-07T03:35:00;20.35;;;14.73;;
65641;SDS011;52340;-6.720;108.544;2023-05-07T03:36:02;19.25;;;13.48;;
65641;SDS011;52340;-6.720;108.544;2023-05-07T03:37:04;25.27;;;17.23;;
65641;SDS011;52340;-6.720;108.544;2023-05-07T03:38:09;23.30;;;14.95;;
65641;SDS011;52340;-6.720;108.544;2023-05-07T03:39:11;23.33;;;15.20;;
65641;SDS011;52340;-6.720;108.544;2023-05-07T03:40:13;21.08;;;14.65;;
65641;SDS011;52340;-6.720;108.544;2023-05-07T03:41:15;21.70;;;14.65;;
65641;SDS011;52340;-6.720;108.544;2023-05-07T03:42:17;21.33;;;14.40;;
65641;SDS011;52340;-6.720;108.544;2023-05-07T03:43:18;20.05;;;14.43;;
65641;SDS011;52340;-6.720;108.544;2023-05-07T03:44:20;18.40;;;13.40;;
65641;SDS011;52340;-6.720;108.544;2023-05-07T03:45:22;19.20;;;13.93;;
65641;SDS011;52340;-6.720;108.544;2023-05-07T03:46:24;19.65;;;13.18;;
65641;SDS011;52340;-6.720;108.544;2023-05-07T03:47:26;21.75;;;13.20;;
65641;SDS011;52340;-6.720;108.544;2023-05-07T03:48:27;18.45;;;13.40;;
65641;SDS011;52340;-6.720;108.544;2023-05-07T03:49:34;19.00;;;13.20;;
65641;SDS011;52340;-6.720;108.544;2023-05-07T03:50:35;17.35;;;13.05;;
65641;SDS011;52340;-6.720;108.544;2023-05-07T03:51:38;19.83;;;13.27;;
65641;SDS011;52340;-6.720;108.544;2023-05-07T03:52:39;19.75;;;12.80;;
65641;SDS011;52340;-6.720;108.544;2023-05-07T03:53:41;18.60;;;13.25;;
65641;SDS011;52340;-6.720;108.544;2023-05-07T03:54:43;18.45;;;13.00;;
65641;SDS011;52340;-6.720;108.544;2023-05-07T03:55:45;17.38;;;12.88;;
65641;SDS011;52340;-6.720;108.544;2023-05-07T03:56:46;20.17;;;12.15;;
65641;SDS011;52340;-6.720;108.544;2023-05-07T03:57:48;20.73;;;12.32;;
65641;SDS011;52340;-6.720;108.544;2023-05-07T03:58:50;18.05;;;13.25;;
65641;SDS011;52340;-6.720;108.544;2023-05-07T03:59:52;19.10;;;12.73;;
65641;SDS011;52340;-6.720;108.544;2023-05-07T04:00:57;17.35;;;12.27;;
65641;SDS011;52340;-6.720;108.544;2023-05-07T04:01:59;18.60;;;13.25;;
65641;SDS011;52340;-6.720;108.544;2023-05-07T04:03:02;19.05;;;13.02;;
65641;SDS011;52340;-6.720;108.544;2023-05-07T04:04:07;20.13;;;12.55;;
65641;SDS011;52340;-6.720;108.544;2023-05-07T04:05:13;18.88;;;13.13;;
65641;SDS011;52340;-6.720;108.544;2023-05-07T04:06:16;20.30;;;13.57;;
65641;SDS011;52340;-6.720;108.544;2023-05-07T04:07:18;19.13;;;13.02;;
65641;SDS011;52340;-6.720;108.544;2023-05-07T04:08:20;21.77;;;13.57;;
65641;SDS011;52340;-6.720;108.544;2023-05-07T04:09:22;21.05;;;14.48;;
65641;SDS011;52340;-6.720;108.544;2023-05-07T04:10:27;27.38;;;17.17;;
65641;SDS011;52340;-6.720;108.544;2023-05-07T04:11:30;22.58;;;15.77;;
65641;SDS011;52340;-6.720;108.544;2023-05-07T04:12:31;24.63;;;16.38;;
65641;SDS011;52340;-6.720;108.544;2023-05-07T04:13:33;25.08;;;17.00;;
65641;SDS011;52340;-6.720;108.544;2023-05-07T04:14:38;25.02;;;15.70;;
65641;SDS011;52340;-6.720;108.544;2023-05-07T04:15:40;24.13;;;15.73;;
65641;SDS011;52340;-6.720;108.544;2023-05-07T04:16:41;20.88;;;14.95;;
65641;SDS011;52340;-6.720;108.544;2023-05-07T04:17:43;20.25;;;13.85;;
65641;SDS011;52340;-6.720;108.544;2023-05-07T04:18:45;20.30;;;13.80;;
65641;SDS011;52340;-6.720;108.544;2023-05-07T04:19:47;17.10;;;13.27;;
65641;SDS011;52340;-6.720;108.544;2023-05-07T04:20:53;19.90;;;12.77;;
65641;SDS011;52340;-6.720;108.544;2023-05-07T04:21:55;18.33;;;12.23;;
65641;SDS011;52340;-6.720;108.544;2023-05-07T04:22:57;18.75;;;12.80;;
65641;SDS011;52340;-6.720;108.544;2023-05-07T04:23:59;18.83;;;12.18;;
65641;SDS011;52340;-6.720;108.544;2023-05-07T04:25:01;23.27;;;13.32;;
65641;SDS011;52340;-6.720;108.544;2023-05-07T04:26:02;17.40;;;12.98;;
65641;SDS011;52340;-6.720;108.544;2023-05-07T04:27:04;19.92;;;13.40;;
65641;SDS011;52340;-6.720;108.544;2023-05-07T04:28:09;19.85;;;12.68;;
65641;SDS011;52340;-6.720;108.544;2023-05-07T04:29:11;19.00;;;12.70;;
65641;SDS011;52340;-6.720;108.544;2023-05-07T04:30:13;17.60;;;12.82;;
65641;SDS011;52340;-6.720;108.544;2023-05-07T04:31:15;17.70;;;12.48;;
65641;SDS011;52340;-6.720;108.544;2023-05-07T04:32:17;18.23;;;12.80;;
65641;SDS011;52340;-6.720;108.544;2023-05-07T04:33:20;18.33;;;12.75;;
65641;SDS011;52340;-6.720;108.544;2023-05-07T04:34:22;19.05;;;12.93;;
65641;SDS011;52340;-6.720;108.544;2023-05-07T04:35:23;20.30;;;13.27;;
65641;SDS011;52340;-6.720;108.544;2023-05-07T04:36:27;18.83;;;13.13;;
65641;SDS011;52340;-6.720;108.544;2023-05-07T04:38:29;19.27;;;13.73;;
65641;SDS011;52340;-6.720;108.544;2023-05-07T04:39:33;19.15;;;13.80;;
65641;SDS011;52340;-6.720;108.544;2023-05-07T04:40:35;21.38;;;14.13;;
65641;SDS011;52340;-6.720;108.544;2023-05-07T04:41:39;17.40;;;13.15;;
65641;SDS011;52340;-6.720;108.544;2023-05-07T04:43:44;23.60;;;14.35;;
65641;SDS011;52340;-6.720;108.544;2023-05-07T04:44:45;18.00;;;14.32;;
65641;SDS011;52340;-6.720;108.544;2023-05-07T04:45:50;20.35;;;14.30;;
65641;SDS011;52340;-6.720;108.544;2023-05-07T04:46:52;18.52;;;13.45;;
65641;SDS011;52340;-6.720;108.544;2023-05-07T04:47:53;20.55;;;14.68;;
65641;SDS011;52340;-6.720;108.544;2023-05-07T04:48:55;18.95;;;15.25;;
65641;SDS011;52340;-6.720;108.544;2023-05-07T04:49:57;22.20;;;15.25;;
65641;SDS011;52340;-6.720;108.544;2023-05-07T04:51:01;21.30;;;15.65;;
65641;SDS011;52340;-6.720;108.544;2023-05-07T04:52:05;20.83;;;15.48;;
65641;SDS011;52340;-6.720;108.544;2023-05-07T04:53:06;19.38;;;14.68;;
65641;SDS011;52340;-6.720;108.544;2023-05-07T04:54:08;19.58;;;14.25;;
65641;SDS011;52340;-6.720;108.544;2023-05-07T04:59:20;21.60;;;16.02;;
65641;SDS011;52340;-6.720;108.544;2023-05-07T05:00:22;20.25;;;15.70;;
65641;SDS011;52340;-6.720;108.544;2023-05-07T05:03:31;27.75;;;20.48;;
65641;SDS011;52340;-6.720;108.544;2023-05-07T05:04:33;27.50;;;18.38;;
65641;SDS011;52340;-6.720;108.544;2023-05-07T05:05:35;25.35;;;19.75;;
65641;SDS011;52340;-6.720;108.544;2023-05-07T05:06:36;26.25;;;19.27;;
65641;SDS011;52340;-6.720;108.544;2023-05-07T05:07:41;29.13;;;21.52;;
65641;SDS011;52340;-6.720;108.544;2023-05-07T05:08:43;28.25;;;21.45;;
65641;SDS011;52340;-6.720;108.544;2023-05-07T05:10:51;25.40;;;19.77;;
65641;SDS011;52340;-6.720;108.544;2023-05-07T05:11:53;24.10;;;19.35;;
65641;SDS011;52340;-6.720;108.544;2023-05-07T05:12:55;25.17;;;18.08;;
65641;SDS011;52340;-6.720;108.544;2023-05-07T05:15:00;27.38;;;19.40;;
65641;SDS011;52340;-6.720;108.544;2023-05-07T05:16:02;26.33;;;19.08;;
65641;SDS011;52340;-6.720;108.544;2023-05-07T05:18:06;27.35;;;17.17;;
65641;SDS011;52340;-6.720;108.544;2023-05-07T05:19:08;22.52;;;17.67;;
65641;SDS011;52340;-6.720;108.544;2023-05-07T05:20:10;24.17;;;17.60;;
65641;SDS011;52340;-6.720;108.544;2023-05-07T05:21:11;22.48;;;18.55;;
65641;SDS011;52340;-6.720;108.544;2023-05-07T05:22:13;25.10;;;18.42;;
65641;SDS011;52340;-6.720;108.544;2023-05-07T05:24:19;24.55;;;19.33;;
65641;SDS011;52340;-6.720;108.544;2023-05-07T05:25:20;22.35;;;18.98;;
65641;SDS011;52340;-6.720;108.544;2023-05-07T05:26:22;24.25;;;19.25;;
65641;SDS011;52340;-6.720;108.544;2023-05-07T05:28:28;24.73;;;18.23;;
65641;SDS011;52340;-6.720;108.544;2023-05-07T05:30:34;23.67;;;17.80;;
65641;SDS011;52340;-6.720;108.544;2023-05-07T05:31:36;24.33;;;18.58;;
65641;SDS011;52340;-6.720;108.544;2023-05-07T05:32:38;25.20;;;18.40;;
65641;SDS011;52340;-6.720;108.544;2023-05-07T05:33:40;26.02;;;17.98;;
65641;SDS011;52340;-6.720;108.544;2023-05-07T05:34:49;22.88;;;18.50;;
65641;SDS011;52340;-6.720;108.544;2023-05-07T05:35:51;22.63;;;17.50;;
65641;SDS011;52340;-6.720;108.544;2023-05-07T05:36:53;21.50;;;17.50;;
65641;SDS011;52340;-6.720;108.544;2023-05-07T05:37:55;22.38;;;18.27;;
65641;SDS011;52340;-6.720;108.544;2023-05-07T05:38:57;23.75;;;18.98;;
65641;SDS011;52340;-6.720;108.544;2023-05-07T05:42:14;20.05;;;16.65;;
65641;SDS011;52340;-6.720;108.544;2023-05-07T05:44:16;23.90;;;17.87;;
65641;SDS011;52340;-6.720;108.544;2023-05-07T05:45:18;25.85;;;17.80;;
65641;SDS011;52340;-6.720;108.544;2023-05-07T05:52:02;24.50;;;18.90;;
65641;SDS011;52340;-6.720;108.544;2023-05-07T05:53:04;23.63;;;18.42;;
65641;SDS011;52340;-6.720;108.544;2023-05-07T05:55:06;24.37;;;18.63;;
65641;SDS011;52340;-6.720;108.544;2023-05-07T05:56:11;24.02;;;18.52;;
65641;SDS011;52340;-6.720;108.544;2023-05-07T05:57:14;24.60;;;18.60;;
65641;SDS011;52340;-6.720;108.544;2023-05-07T06:02:51;21.27;;;16.42;;
65641;SDS011;52340;-6.720;108.544;2023-05-07T06:03:52;23.95;;;17.00;;
65641;SDS011;52340;-6.720;108.544;2023-05-07T06:10:29;22.88;;;16.77;;
65641;SDS011;52340;-6.720;108.544;2023-05-07T06:11:31;21.00;;;16.02;;
65641;SDS011;52340;-6.720;108.544;2023-05-07T06:14:51;21.15;;;16.48;;
65641;SDS011;52340;-6.720;108.544;2023-05-07T06:15:55;22.88;;;16.80;;
65641;SDS011;52340;-6.720;108.544;2023-05-07T06:17:58;21.15;;;16.17;;
65641;SDS011;52340;-6.720;108.544;2023-05-07T06:20:10;20.70;;;15.88;;
65641;SDS011;52340;-6.720;108.544;2023-05-07T06:23:32;19.38;;;15.15;;
65641;SDS011;52340;-6.720;108.544;2023-05-07T06:24:34;17.25;;;14.68;;
65641;SDS011;52340;-6.720;108.544;2023-05-07T06:26:46;21.40;;;16.20;;
65641;SDS011;52340;-6.720;108.544;2023-05-07T06:27:47;18.92;;;15.35;;
65641;SDS011;52340;-6.720;108.544;2023-05-07T06:28:49;19.63;;;14.80;;
65641;SDS011;52340;-6.720;108.544;2023-05-07T06:29:53;19.50;;;15.30;;
65641;SDS011;52340;-6.720;108.544;2023-05-07T06:30:54;20.67;;;15.85;;
65641;SDS011;52340;-6.720;108.544;2023-05-07T06:31:56;22.50;;;15.50;;
65641;SDS011;52340;-6.720;108.544;2023-05-07T06:33:04;22.33;;;16.95;;
65641;SDS011;52340;-6.720;108.544;2023-05-07T06:34:06;25.48;;;19.17;;
65641;SDS011;52340;-6.720;108.544;2023-05-07T06:35:07;24.20;;;17.85;;
65641;SDS011;52340;-6.720;108.544;2023-05-07T06:36:09;23.80;;;17.35;;
65641;SDS011;52340;-6.720;108.544;2023-05-07T06:37:11;22.00;;;16.45;;
65641;SDS011;52340;-6.720;108.544;2023-05-07T06:39:23;20.77;;;16.53;;
65641;SDS011;52340;-6.720;108.544;2023-05-07T06:40:25;25.67;;;16.80;;
65641;SDS011;52340;-6.720;108.544;2023-05-07T06:41:27;21.77;;;16.15;;
65641;SDS011;52340;-6.720;108.544;2023-05-07T06:42:28;22.52;;;16.77;;
65641;SDS011;52340;-6.720;108.544;2023-05-07T06:44:38;20.08;;;16.23;;
65641;SDS011;52340;-6.720;108.544;2023-05-07T06:47:56;20.60;;;14.75;;
65641;SDS011;52340;-6.720;108.544;2023-05-07T06:50:08;18.10;;;13.95;;
65641;SDS011;52340;-6.720;108.544;2023-05-07T06:52:18;21.73;;;15.45;;
65641;SDS011;52340;-6.720;108.544;2023-05-07T06:54:23;19.98;;;14.93;;
65641;SDS011;52340;-6.720;108.544;2023-05-07T06:56:26;21.10;;;15.27;;
65641;SDS011;52340;-6.720;108.544;2023-05-07T07:01:56;21.05;;;14.90;;
65641;SDS011;52340;-6.720;108.544;2023-05-07T07:02:59;17.45;;;14.35;;
65641;SDS011;52340;-6.720;108.544;2023-05-07T07:05:09;20.20;;;13.70;;
65641;SDS011;52340;-6.720;108.544;2023-05-07T07:07:15;17.88;;;13.77;;
65641;SDS011;52340;-6.720;108.544;2023-05-07T07:09:19;18.25;;;14.75;;
65641;SDS011;52340;-6.720;108.544;2023-05-07T07:12:27;19.55;;;14.35;;
65641;SDS011;52340;-6.720;108.544;2023-05-07T07:14:41;18.73;;;13.95;;
65641;SDS011;52340;-6.720;108.544;2023-05-07T07:16:47;20.17;;;14.50;;
65641;SDS011;52340;-6.720;108.544;2023-05-07T07:19:55;16.90;;;13.30;;
65641;SDS011;52340;-6.720;108.544;2023-05-07T07:20:57;19.13;;;14.05;;
65641;SDS011;52340;-6.720;108.544;2023-05-07T07:21:58;21.88;;;14.27;;
65641;SDS011;52340;-6.720;108.544;2023-05-07T07:24:10;26.13;;;16.20;;
65641;SDS011;52340;-6.720;108.544;2023-05-07T07:25:12;24.30;;;15.82;;
65641;SDS011;52340;-6.720;108.544;2023-05-07T07:26:14;19.10;;;14.20;;
65641;SDS011;52340;-6.720;108.544;2023-05-07T07:28:20;25.27;;;16.65;;
65641;SDS011;52340;-6.720;108.544;2023-05-07T07:32:32;25.30;;;15.77;;
65641;SDS011;52340;-6.720;108.544;2023-05-07T07:33:35;21.05;;;13.90;;
65641;SDS011;52340;-6.720;108.544;2023-05-07T07:37:49;22.67;;;14.60;;
65641;SDS011;52340;-6.720;108.544;2023-05-07T07:38:51;19.55;;;13.52;;
65641;SDS011;52340;-6.720;108.544;2023-05-07T07:42:13;19.23;;;13.05;;
65641;SDS011;52340;-6.720;108.544;2023-05-07T07:43:14;26.85;;;15.63;;
65641;SDS011;52340;-6.720;108.544;2023-05-07T07:47:28;21.07;;;13.87;;
65641;SDS011;52340;-6.720;108.544;2023-05-07T07:50:40;17.13;;;12.90;;
65641;SDS011;52340;-6.720;108.544;2023-05-07T07:52:46;18.88;;;13.65;;
65641;SDS011;52340;-6.720;108.544;2023-05-07T07:53:50;18.83;;;13.60;;
65641;SDS011;52340;-6.720;108.544;2023-05-07T07:54:52;19.83;;;14.02;;
65641;SDS011;52340;-6.720;108.544;2023-05-07T07:55:53;23.10;;;14.98;;
65641;SDS011;52340;-6.720;108.544;2023-05-07T07:56:54;19.73;;;14.77;;
65641;SDS011;52340;-6.720;108.544;2023-05-07T08:00:05;21.10;;;14.65;;
65641;SDS011;52340;-6.720;108.544;2023-05-07T08:02:17;20.00;;;14.10;;
65641;SDS011;52340;-6.720;108.544;2023-05-07T08:05:39;17.67;;;13.02;;
65641;SDS011;52340;-6.720;108.544;2023-05-07T08:08:54;17.52;;;13.40;;
65641;SDS011;52340;-6.720;108.544;2023-05-07T08:14:22;23.40;;;13.50;;
65641;SDS011;52340;-6.720;108.544;2023-05-07T08:19:57;18.27;;;13.13;;
65641;SDS011;52340;-6.720;108.544;2023-05-07T08:23:19;15.35;;;12.13;;
65641;SDS011;52340;-6.720;108.544;2023-05-07T08:32:31;17.90;;;13.65;;
65641;SDS011;52340;-6.720;108.544;2023-05-07T08:37:03;18.42;;;13.95;;
65641;SDS011;52340;-6.720;108.544;2023-05-07T08:40:15;20.35;;;14.52;;
65641;SDS011;52340;-6.720;108.544;2023-05-07T08:55:09;34.20;;;21.38;;
65641;SDS011;52340;-6.720;108.544;2023-05-07T08:56:11;32.70;;;19.20;;
65641;SDS011;52340;-6.720;108.544;2023-05-07T09:02:52;28.10;;;18.20;;
65641;SDS011;52340;-6.720;108.544;2023-05-07T09:03:55;26.05;;;16.80;;
65641;SDS011;52340;-6.720;108.544;2023-05-07T09:04:57;26.25;;;17.02;;
65641;SDS011;52340;-6.720;108.544;2023-05-07T09:05:58;26.80;;;17.83;;
65641;SDS011;52340;-6.720;108.544;2023-05-07T09:11:37;23.73;;;17.17;;
65641;SDS011;52340;-6.720;108.544;2023-05-07T09:12:43;22.60;;;17.10;;
65641;SDS011;52340;-6.720;108.544;2023-05-07T09:13:47;30.33;;;19.48;;
65641;SDS011;52340;-6.720;108.544;2023-05-07T09:15:53;28.73;;;20.25;;
65641;SDS011;52340;-6.720;108.544;2023-05-07T09:26:00;24.43;;;18.23;;
65641;SDS011;52340;-6.720;108.544;2023-05-07T09:28:04;27.90;;;20.60;;
65641;SDS011;52340;-6.720;108.544;2023-05-07T09:30:16;26.40;;;19.80;;
65641;SDS011;52340;-6.720;108.544;2023-05-07T09:31:17;30.30;;;19.95;;
65641;SDS011;52340;-6.720;108.544;2023-05-07T09:32:19;29.38;;;20.48;;
65641;SDS011;52340;-6.720;108.544;2023-05-07T09:33:22;28.10;;;19.75;;
65641;SDS011;52340;-6.720;108.544;2023-05-07T09:35:38;31.63;;;22.02;;
65641;SDS011;52340;-6.720;108.544;2023-05-07T09:42:23;33.47;;;22.05;;
65641;SDS011;52340;-6.720;108.544;2023-05-07T09:43:26;30.17;;;21.23;;
65641;SDS011;52340;-6.720;108.544;2023-05-07T09:44:28;29.60;;;21.42;;
65641;SDS011;52340;-6.720;108.544;2023-05-07T09:49:55;28.83;;;21.13;;
65641;SDS011;52340;-6.720;108.544;2023-05-07T09:53:17;34.33;;;22.00;;
65641;SDS011;52340;-6.720;108.544;2023-05-07T09:56:40;26.38;;;19.85;;
65641;SDS011;52340;-6.720;108.544;2023-05-07T10:00:02;26.55;;;20.25;;
65641;SDS011;52340;-6.720;108.544;2023-05-07T10:01:05;27.77;;;20.55;;
65641;SDS011;52340;-6.720;108.544;2023-05-07T10:02:07;26.23;;;19.95;;
65641;SDS011;52340;-6.720;108.544;2023-05-07T10:04:17;32.80;;;21.55;;
65641;SDS011;52340;-6.720;108.544;2023-05-07T10:05:19;34.63;;;21.45;;
65641;SDS011;52340;-6.720;108.544;2023-05-07T10:06:20;55.35;;;31.38;;
65641;SDS011;52340;-6.720;108.544;2023-05-07T10:07:24;39.60;;;24.75;;
65641;SDS011;52340;-6.720;108.544;2023-05-07T10:08:26;40.30;;;24.77;;
65641;SDS011;52340;-6.720;108.544;2023-05-07T10:09:28;57.72;;;30.27;;
65641;SDS011;52340;-6.720;108.544;2023-05-07T10:11:31;44.50;;;26.08;;
65641;SDS011;52340;-6.720;108.544;2023-05-07T10:12:36;35.45;;;23.75;;
65641;SDS011;52340;-6.720;108.544;2023-05-07T10:13:37;40.00;;;23.50;;
65641;SDS011;52340;-6.720;108.544;2023-05-07T10:14:42;31.33;;;22.48;;
65641;SDS011;52340;-6.720;108.544;2023-05-07T10:15:45;31.63;;;21.75;;
65641;SDS011;52340;-6.720;108.544;2023-05-07T10:16:48;34.13;;;25.08;;
65641;SDS011;52340;-6.720;108.544;2023-05-07T10:17:50;36.72;;;25.83;;
65641;SDS011;52340;-6.720;108.544;2023-05-07T10:18:53;36.72;;;25.00;;
65641;SDS011;52340;-6.720;108.544;2023-05-07T10:19:54;34.28;;;24.05;;
65641;SDS011;52340;-6.720;108.544;2023-05-07T10:20:56;33.17;;;24.02;;
65641;SDS011;52340;-6.720;108.544;2023-05-07T10:22:05;34.92;;;23.80;;
65641;SDS011;52340;-6.720;108.544;2023-05-07T10:23:07;36.83;;;24.83;;
65641;SDS011;52340;-6.720;108.544;2023-05-07T10:24:16;37.83;;;25.85;;
65641;SDS011;52340;-6.720;108.544;2023-05-07T10:25:21;45.13;;;26.40;;
65641;SDS011;52340;-6.720;108.544;2023-05-07T10:26:27;37.20;;;26.70;;
65641;SDS011;52340;-6.720;108.544;2023-05-07T10:27:30;37.85;;;27.08;;
65641;SDS011;52340;-6.720;108.544;2023-05-07T10:28:34;37.05;;;26.80;;
65641;SDS011;52340;-6.720;108.544;2023-05-07T10:29:42;39.97;;;26.13;;
65641;SDS011;52340;-6.720;108.544;2023-05-07T10:30:55;37.47;;;26.55;;
65641;SDS011;52340;-6.720;108.544;2023-05-07T10:32:06;39.10;;;27.25;;
65641;SDS011;52340;-6.720;108.544;2023-05-07T10:33:18;40.03;;;26.05;;
65641;SDS011;52340;-6.720;108.544;2023-05-07T10:34:23;38.00;;;26.20;;
65641;SDS011;52340;-6.720;108.544;2023-05-07T10:35:29;46.45;;;28.00;;